Point Hope, AK

2:06 AM AKDT on August 19, 2017 (GMT -0800)
Point Hope | | Change Station
Active Advisory: High Surf Advisory Active Notice: High Surf Advisory

Elev 13 ft 68.35 °N, 166.80 °W | Updated 10 minutes ago

Partly Cloudy
Partly Cloudy
41 °F
Feels Like 37 °F
N
6
Wind Variable Wind from ENE

Today
High -- | Low -- °F
--% Chance of Precip.
Yesterday
High -- | Low -- °F
Precip. -- in
Pressure 29.69 in
Visibility 10.0 miles
Clouds Few 2100 ft
Windchill 37 °F
Dew Point 37 °F
Humidity 86%
Rainfall 0.00 in
Snow Depth Not available.
6:42 AM 11:35 PM
Waning Crescent, 7% visible
METAR PAPO 190956Z AUTO 06005KT 10SM FEW021 05/03 A2969 RMK AO2 SLP053 T00500028
Pressure 29.69 in
Visibility 10.0 miles
Clouds Few 2100 ft
Windchill 37 °F
Dew Point 37 °F
Humidity 86%
Rainfall 0.00 in
Snow Depth Not available.
6:42 AM 11:35 PM
Waning Crescent, 7% visible
METAR PAPO 190956Z AUTO 06005KT 10SM FEW021 05/03 A2969 RMK AO2 SLP053 T00500028

Get Your Daily Forecast Email!

Thanks for signing up!

Be on the lookout for a verification email in your inbox.

You'll start receiving severe weather alerts in your inbox..

×

10-Day Weather Forecast

Almanac

Astronomy

Aug. 19, 2017 Rise Set
Actual Time
Civil Twilight
Nautical Twilight
Astronomical Twilight
Moon
Length of Visible Light
Length of Day
Tomorrow will be .
, % of the Moon is Illuminated

Today's Extremes

State Highs State Lows

Community

WunderPhotos

Category 6

Welcome to Category 6. This is the collective home for Weather Underground's featured writeups by Dr. Jeff Masters (right), Bob Henson (left), Chris Burt, and other regular contributors.

Nearby

Air Quality

  Air Quality AQ Index Pollutant
Not available.

Snow Depth

Station Depth Elevation

Earthquake Activity

City Distance Mag. Time & Date
Minimum magnitude displayed is 2.5.

Coastal Water Temperatures

Place Temperature

Stations

Nearby Weather Stations

Station Location Temp. Windchill Dew Point Humidity Wind Precip. Elev Updated Type
                   

Watches & Warnings

High Surf Advisory
Issued: 11:24 AM AKDT Aug. 18, 2017 – National Weather Service

... High surf advisory in effect until 6 am akdt Saturday...

The National Weather Service in Fairbanks has issued a high surf
advisory, which is in effect until 6 am akdt Saturday.

* Location... from Wales to Shishmaref

* waves and surf... waves of 4 to 6 feet breaking offshore and
running to the top of the beach.

* Timing... northwest winds to 25 mph will continue to bring high
surf through this evening. High surf will diminish late tonight
into Saturday morning as winds begin to subside and turn to the
north.

* Impacts... minor to moderate beach erosion is expected to occur.

Precautionary/preparedness actions...

A high surf advisory means that localized beach erosion is
expected. Precautions should be taken to protect property.